Time;durP1;ratioP1;P1;durP2;ratioP2;P2;SDS_P1;SDS_P2;PMS_P1;PMS_P2;Temp;Humidity;BMP_temperature;BMP_pressure;BME280_temperature;BME280_humidity;BME280_pressure;Samples;Min_cycle;Max_cycle;Signal;HPM_P1;HPM_P2
2022/03/14 00:01:52;;;;;;;111.30;43.45;;;;;;;-3.78;67.18;99132.92;1750052;80;20989;-54
2022/03/14 00:04:19;;;;;;;102.80;44.10;;;;;;;-3.81;68.45;99135.08;1744149;82;20975;-54
2022/03/14 00:06:51;;;;;;;121.67;43.98;;;;;;;-3.88;69.85;99141.50;1744115;81;21268;-55
2022/03/14 00:09:17;;;;;;;121.25;45.98;;;;;;;-3.94;70.59;99139.98;1743175;82;21167;-55
2022/03/14 00:11:44;;;;;;;135.82;48.98;;;;;;;-4.00;69.76;99140.97;1744165;81;21041;-55
2022/03/14 00:14:11;;;;;;;147.80;59.10;;;;;;;-4.04;70.24;99142.76;1744283;82;20971;-54
2022/03/14 00:16:41;;;;;;;148.40;57.10;;;;;;;-4.07;70.83;99141.77;1743921;82;20963;-55
2022/03/14 00:19:07;;;;;;;174.87;64.37;;;;;;;-4.18;72.59;99145.53;1744423;82;20989;-55
2022/03/14 00:21:39;;;;;;;168.10;61.53;;;;;;;-4.16;71.26;99149.34;1743884;82;21278;-55
2022/03/14 00:24:08;;;;;;;163.10;59.60;;;;;;;-4.20;70.91;99150.13;1744220;82;21431;-54
2022/03/14 00:26:35;;;;;;;154.15;60.00;;;;;;;-4.18;69.23;99149.50;1743876;82;21422;-55
2022/03/14 00:29:03;;;;;;;140.82;55.88;;;;;;;-4.22;72.15;99157.91;1744379;82;20959;-54
2022/03/14 00:31:30;;;;;;;133.65;59.13;;;;;;;-4.24;71.90;99150.13;1743722;82;21002;-54
2022/03/14 00:33:57;;;;;;;142.95;57.08;;;;;;;-4.27;72.03;99149.95;1755123;80;21017;-54
2022/03/14 00:36:27;;;;;;;132.93;54.18;;;;;;;-4.26;72.94;99152.11;1729773;82;21502;-54
2022/03/14 00:38:54;;;;;;;134.15;52.08;;;;;;;-4.33;73.66;99147.93;1743750;81;21009;-55
2022/03/14 00:41:21;;;;;;;144.80;56.08;;;;;;;-4.37;72.83;99156.33;1743890;82;20947;-54
2022/03/14 00:43:48;;;;;;;125.18;51.60;;;;;;;-4.41;73.09;99155.82;1745397;81;21041;-54
2022/03/14 00:46:18;;;;;;;132.40;50.55;;;;;;;-4.44;72.16;99146.88;1748535;80;20962;-54
2022/03/14 00:48:45;;;;;;;120.53;50.10;;;;;;;-4.44;72.33;99156.14;1743914;82;21364;-55
2022/03/14 00:51:12;;;;;;;128.32;49.67;;;;;;;-4.53;73.98;99153.08;1757343;80;20997;-54
2022/03/14 00:53:39;;;;;;;136.72;47.90;;;;;;;-4.54;74.21;99158.88;1767698;80;21020;-55
2022/03/14 00:56:06;;;;;;;121.28;49.10;;;;;;;-4.52;71.96;99156.59;1743968;82;21023;-54
2022/03/14 00:58:34;;;;;;;121.05;45.92;;;;;;;-4.57;72.42;99157.88;1744017;81;21018;-55
2022/03/14 01:01:01;;;;;;;115.20;47.08;;;;;;;-4.58;72.25;99165.47;1759032;80;21073;-54
2022/03/14 01:03:28;;;;;;;113.32;44.53;;;;;;;-4.58;72.43;99160.67;1769922;80;20971;-55
2022/03/14 01:05:55;;;;;;;131.55;50.40;;;;;;;-4.60;68.56;99165.30;1744139;82;21061;-55
2022/03/14 01:08:22;;;;;;;112.92;44.50;;;;;;;-4.64;71.53;99159.47;1744097;82;20943;-54
2022/03/14 01:10:49;;;;;;;109.67;45.03;;;;;;;-4.67;71.82;99157.64;1749035;80;21434;-55
2022/03/14 01:13:15;;;;;;;121.22;48.60;;;;;;;-4.72;74.41;99157.27;1749411;82;21052;-55
2022/03/14 01:15:42;;;;;;;121.53;49.27;;;;;;;-4.72;73.98;99155.94;1746549;81;20975;-55
2022/03/14 01:18:09;;;;;;;114.12;49.15;;;;;;;-4.70;73.44;99160.11;1744203;81;20963;-53
2022/03/14 01:20:36;;;;;;;106.30;46.68;;;;;;;-4.71;74.46;99157.10;1743954;82;21458;-54
2022/03/14 01:23:03;;;;;;;112.03;45.48;;;;;;;-4.75;74.59;99165.52;1744363;81;20959;-54
2022/03/14 01:25:30;;;;;;;115.95;45.75;;;;;;;-4.78;73.78;99161.38;1743987;82;21408;-54
2022/03/14 01:27:57;;;;;;;103.58;42.27;;;;;;;-4.80;70.69;99169.94;1744019;81;20998;-54
2022/03/14 01:30:24;;;;;;;109.03;46.42;;;;;;;-4.93;73.32;99161.09;1751340;80;21414;-54
2022/03/14 01:32:51;;;;;;;108.55;41.80;;;;;;;-4.94;72.33;99161.25;1774846;80;20997;-54
2022/03/14 01:35:18;;;;;;;98.62;41.42;;;;;;;-4.96;73.40;99165.34;1746472;80;20962;-53
2022/03/14 01:37:49;;;;;;;94.65;36.55;;;;;;;-4.94;73.53;99163.89;1743969;81;21037;-54
2022/03/14 01:40:19;;;;;;;86.78;36.95;;;;;;;-4.91;73.12;99164.89;1724472;82;20982;-54
2022/03/14 01:42:46;;;;;;;93.92;37.73;;;;;;;-4.92;75.00;99168.53;1744193;81;21022;-53
2022/03/14 01:45:14;;;;;;;94.17;40.85;;;;;;;-4.95;75.04;99167.03;1749109;80;21060;-54
2022/03/14 01:47:43;;;;;;;94.25;40.65;;;;;;;-4.97;75.29;99162.86;1774788;80;21486;-54
2022/03/14 01:50:10;;;;;;;;;;;;;;;-4.93;72.49;99173.48;1754237;80;21022;-55
2022/03/14 01:52:37;;;;;;;95.67;39.05;;;;;;;-4.92;71.73;99179.93;1744207;81;20166;-55
2022/03/14 01:55:05;;;;;;;117.85;46.88;;;;;;;-4.96;70.86;99175.09;1763233;80;21022;-54
2022/03/14 01:57:33;;;;;;;106.00;44.20;;;;;;;-4.98;73.83;99187.63;1744229;81;21420;-54
2022/03/14 02:00:00;;;;;;;96.63;40.33;;;;;;;-4.97;74.76;99190.12;1721778;80;21026;-54
2022/03/14 02:02:27;;;;;;;108.17;42.17;;;;;;;-4.96;75.23;99196.23;1744075;81;21649;-53
2022/03/14 02:04:54;;;;;;;98.50;40.67;;;;;;;-4.94;73.53;99195.62;1744053;82;20975;-55
2022/03/14 02:07:21;;;;;;;99.97;42.23;;;;;;;-5.00;74.78;99197.05;1744258;81;21069;-54
2022/03/14 02:09:48;;;;;;;107.97;43.60;;;;;;;-4.99;73.24;99203.16;1744022;82;20983;-55
2022/03/14 02:12:15;;;;;;;103.58;40.80;;;;;;;-5.03;73.14;99201.33;1761683;81;21481;-54
2022/03/14 02:14:42;;;;;;;115.25;49.08;;;;;;;-5.06;72.32;99197.64;1751172;81;21343;-54
2022/03/14 02:17:11;;;;;;;107.15;45.98;;;;;;;-5.08;73.23;99199.62;1743936;81;21002;-54
2022/03/14 02:19:38;;;;;;;104.05;45.05;;;;;;;-5.07;73.92;99200.44;1744210;82;21073;-54
2022/03/14 02:22:09;;;;;;;117.30;46.33;;;;;;;-5.08;72.61;99198.78;1725619;81;21030;-54
2022/03/14 02:24:36;;;;;;;95.15;39.18;;;;;;;-5.12;75.62;99196.95;1762890;80;20946;-55
2022/03/14 02:27:04;;;;;;;93.78;38.75;;;;;;;-5.15;76.11;99202.52;1743940;81;22063;-54
2022/03/14 02:29:31;;;;;;;108.55;42.35;;;;;;;-5.16;74.71;99212.75;1744237;82;20998;-54
2022/03/14 02:31:58;;;;;;;101.15;46.35;;;;;;;-5.20;76.35;99203.48;1743930;81;21550;-54
2022/03/14 02:34:25;;;;;;;87.33;38.10;;;;;;;-5.22;76.60;99204.92;1760894;80;21041;-54
2022/03/14 02:36:51;;;;;;;92.25;40.25;;;;;;;-5.24;75.80;99205.58;1745936;80;21038;-54
2022/03/14 02:39:18;;;;;;;103.55;40.55;;;;;;;-5.23;73.61;99210.36;1744155;82;22110;-54
2022/03/14 02:41:45;;;;;;;80.03;36.85;;;;;;;-5.19;71.71;99207.78;1743860;81;21485;-54
2022/03/14 02:44:13;;;;;;;91.82;38.90;;;;;;;-5.17;70.96;99213.73;1744124;82;20986;-54
2022/03/14 02:46:40;;;;;;;100.35;39.92;;;;;;;-5.16;72.58;99211.44;1744947;80;21466;-53
2022/03/14 02:49:08;;;;;;;84.87;35.88;;;;;;;-5.15;70.95;99210.45;1762061;80;20981;-54
2022/03/14 02:51:38;;;;;;;85.72;36.28;;;;;;;-5.11;73.14;99214.47;1751093;80;21098;-54
2022/03/14 02:54:08;;;;;;;78.45;34.13;;;;;;;-5.07;72.28;99212.34;1744233;81;21395;-54
2022/03/14 02:56:39;;;;;;;83.87;35.38;;;;;;;-5.05;69.79;99218.30;1765123;80;20961;-54
2022/03/14 02:59:06;;;;;;;88.35;37.73;;;;;;;-5.08;69.36;99218.61;1762448;80;20950;-54
2022/03/14 03:01:35;;;;;;;94.77;37.17;;;;;;;-5.10;69.66;99218.77;1765958;80;21052;-55
2022/03/14 03:04:04;;;;;;;91.05;36.85;;;;;;;-5.11;68.92;99227.69;1762129;80;22064;-54
2022/03/14 03:06:33;;;;;;;100.07;38.40;;;;;;;-5.15;68.70;99228.95;1744017;81;27236;-54
2022/03/14 03:09:02;;;;;;;94.22;37.13;;;;;;;-5.23;68.85;99227.55;1744306;81;20983;-54
2022/03/14 03:11:29;;;;;;;95.42;38.73;;;;;;;-5.29;69.18;99235.59;1743879;82;21114;-54
2022/03/14 03:13:56;;;;;;;86.10;37.08;;;;;;;-5.35;70.87;99234.86;1744217;81;21053;-54
2022/03/14 03:16:23;;;;;;;88.15;37.05;;;;;;;-5.40;73.40;99237.11;1748048;80;21042;-54
2022/03/14 03:18:50;;;;;;;87.90;38.63;;;;;;;-5.43;73.26;99237.42;1743448;82;21423;-54
2022/03/14 03:21:17;;;;;;;89.20;39.35;;;;;;;-5.43;75.15;99236.09;1743465;82;20981;-54
2022/03/14 03:23:44;;;;;;;93.75;38.48;;;;;;;-5.47;70.74;99245.28;1751913;80;20981;-54
2022/03/14 03:26:10;;;;;;;86.30;39.67;;;;;;;-5.56;70.69;99250.12;1754500;80;20935;-54
2022/03/14 03:28:37;;;;;;;86.53;37.98;;;;;;;-5.58;75.06;99248.13;1743749;82;22050;-54
2022/03/14 03:31:13;;;;;;;87.47;39.00;;;;;;;-5.58;70.32;99246.31;1743991;82;20983;-54
2022/03/14 03:33:40;;;;;;;88.72;37.13;;;;;;;-5.66;69.76;99246.22;1743865;81;20939;-56
2022/03/14 03:36:07;;;;;;;81.60;37.65;;;;;;;-5.71;69.87;99249.31;1744039;82;21006;-56
2022/03/14 03:38:35;;;;;;;88.07;36.55;;;;;;;-5.71;70.28;99257.23;1729566;80;21017;-54
2022/03/14 03:41:03;;;;;;;82.10;38.63;;;;;;;-5.70;70.06;99256.26;1758674;80;21821;-55
2022/03/14 03:43:30;;;;;;;73.15;34.55;;;;;;;-5.69;70.11;99255.28;1744194;81;21316;-55
2022/03/14 03:45:57;;;;;;;86.15;37.35;;;;;;;-5.66;72.59;99256.78;1747262;80;21018;-54
2022/03/14 03:48:24;;;;;;;93.55;38.55;;;;;;;-5.57;74.21;99255.08;1747841;80;20966;-54
2022/03/14 03:50:51;;;;;;;90.15;37.08;;;;;;;-5.51;72.43;99264.57;1758603;80;21057;-55
2022/03/14 03:53:18;;;;;;;100.85;45.15;;;;;;;-5.49;71.37;99261.28;1743924;81;21548;-54
2022/03/14 03:55:45;;;;;;;78.57;35.10;;;;;;;-5.51;73.83;99260.61;1744071;81;21034;-55
2022/03/14 03:58:12;;;;;;;93.75;42.45;;;;;;;-5.51;71.40;99271.17;1744036;81;21002;-54
2022/03/14 04:00:39;;;;;;;87.72;40.40;;;;;;;-5.52;75.95;99268.20;1744183;82;20966;-54
2022/03/14 04:03:07;;;;;;;91.60;39.20;;;;;;;-5.53;75.18;99270.50;1744205;80;20970;-54
2022/03/14 04:05:39;;;;;;;79.80;35.35;;;;;;;-5.51;73.82;99275.63;1761864;80;22021;-55
2022/03/14 04:08:04;;;;;;;;;;;;;;;-5.56;73.42;99271.26;1746341;81;21014;-54
2022/03/14 04:10:31;;;;;;;89.87;44.55;;;;;;;-5.61;74.35;99275.67;1744012;82;20159;-53
2022/03/14 04:12:59;;;;;;;90.12;42.17;;;;;;;-5.69;75.94;99271.61;1743723;81;21053;-54
2022/03/14 04:15:27;;;;;;;102.70;38.95;;;;;;;-5.74;76.76;99277.31;1744228;82;21038;-55
2022/03/14 04:17:57;;;;;;;87.00;38.33;;;;;;;-5.77;77.28;99272.34;1743856;81;21591;-55
2022/03/14 04:20:23;;;;;;;93.85;40.23;;;;;;;-5.74;74.65;99272.52;1748224;80;20970;-54
2022/03/14 04:22:51;;;;;;;95.35;38.83;;;;;;;-5.76;73.17;99280.59;1743857;81;21431;-54
2022/03/14 04:25:18;;;;;;;96.37;40.75;;;;;;;-5.78;73.84;99283.05;1743975;81;21523;-54
2022/03/14 04:27:45;;;;;;;117.60;42.50;;;;;;;-5.80;76.68;99285.84;1743825;81;21054;-55
2022/03/14 04:30:13;;;;;;;103.92;41.02;;;;;;;-5.77;76.04;99290.82;1770329;80;21043;-54
2022/03/14 04:32:40;;;;;;;104.23;42.80;;;;;;;-5.71;75.28;99288.09;1744116;81;20964;-54
2022/03/14 04:35:08;;;;;;;94.07;37.65;;;;;;;-5.67;74.98;99296.89;1744138;81;20964;-54
2022/03/14 04:37:36;;;;;;;85.40;38.30;;;;;;;-5.63;73.09;99292.66;1744165;81;21530;-55
2022/03/14 04:40:05;;;;;;;81.57;37.53;;;;;;;-5.64;74.65;99293.61;1744395;81;21391;-55
2022/03/14 04:42:32;;;;;;;93.00;38.75;;;;;;;-5.63;72.95;99300.09;1744119;81;22129;-55
2022/03/14 04:44:59;;;;;;;89.30;38.00;;;;;;;-5.66;75.51;99303.00;1747064;81;20975;-55
2022/03/14 04:47:26;;;;;;;102.53;39.20;;;;;;;-5.65;77.01;99300.70;1701381;82;20975;-55
2022/03/14 04:49:53;;;;;;;96.63;40.52;;;;;;;-5.63;74.63;99304.55;1736782;80;21037;-55
2022/03/14 04:52:21;;;;;;;85.27;35.00;;;;;;;-5.60;74.76;99309.52;1744167;82;21456;-55
2022/03/14 04:54:48;;;;;;;99.77;40.80;;;;;;;-5.59;73.92;99312.02;1740464;81;22119;-55
2022/03/14 04:57:15;;;;;;;90.57;34.40;;;;;;;-5.59;75.63;99310.69;1738976;81;21048;-55
2022/03/14 04:59:42;;;;;;;89.42;35.00;;;;;;;-5.55;72.75;99320.01;1741952;82;21482;-55
2022/03/14 05:02:09;;;;;;;77.05;32.45;;;;;;;-5.57;71.83;99311.86;1748185;80;20963;-55
2022/03/14 05:04:38;;;;;;;79.92;31.65;;;;;;;-5.62;72.37;99314.95;1762959;80;20997;-55
2022/03/14 05:07:07;;;;;;;89.92;32.83;;;;;;;-5.60;72.34;99313.48;1772712;80;21044;-55
2022/03/14 05:09:34;;;;;;;81.53;33.00;;;;;;;-5.56;71.06;99312.20;1735179;82;21457;-56
2022/03/14 05:12:01;;;;;;;83.37;29.87;;;;;;;-5.56;72.25;99316.99;1745601;81;20998;-55
2022/03/14 05:14:29;;;;;;;73.97;30.68;;;;;;;-5.52;73.07;99323.66;1744068;82;21030;-55
2022/03/14 05:16:57;;;;;;;76.10;35.55;;;;;;;-5.52;72.22;99322.34;1744137;81;21814;-55
2022/03/14 05:19:24;;;;;;;84.22;35.55;;;;;;;-5.47;72.19;99329.81;1744314;81;20968;-56
2022/03/14 05:21:51;;;;;;;72.65;31.35;;;;;;;-5.42;72.33;99319.66;1723260;81;20997;-55
2022/03/14 05:24:18;;;;;;;71.82;34.58;;;;;;;-5.41;72.43;99316.86;1759282;80;20949;-55
2022/03/14 05:26:45;;;;;;;125.05;44.23;;;;;;;-5.36;72.32;99325.69;1758636;80;20973;-55
2022/03/14 05:29:14;;;;;;;84.20;33.58;;;;;;;-5.32;71.26;99322.25;1744239;82;20982;-55
2022/03/14 05:31:42;;;;;;;80.17;36.40;;;;;;;-5.30;73.69;99324.25;1744354;82;21012;-55
2022/03/14 05:34:09;;;;;;;69.67;32.25;;;;;;;-5.27;71.81;99327.45;1744203;82;20959;-55
2022/03/14 05:36:37;;;;;;;134.20;54.38;;;;;;;-5.21;71.49;99325.55;1744071;82;21431;-56
2022/03/14 05:39:04;;;;;;;140.80;63.40;;;;;;;-5.15;70.93;99334.19;1744448;82;21423;-55
2022/03/14 05:41:31;;;;;;;150.03;68.67;;;;;;;-5.12;72.67;99337.04;1744169;82;20994;-55
2022/03/14 05:43:58;;;;;;;154.42;65.87;;;;;;;-5.05;72.12;99342.05;1743940;81;21264;-55
2022/03/14 05:46:25;;;;;;;97.25;43.40;;;;;;;-5.00;72.13;99330.56;1748487;80;20967;-55
2022/03/14 05:48:52;;;;;;;191.28;73.10;;;;;;;-4.95;71.96;99334.92;1750699;80;21068;-55
2022/03/14 05:51:19;;;;;;;100.15;46.58;;;;;;;-4.89;71.38;99335.63;1749959;80;21041;-55
2022/03/14 05:53:46;;;;;;;254.45;95.95;;;;;;;-4.84;73.43;99337.34;1746767;80;21052;-55
2022/03/14 05:56:13;;;;;;;150.18;65.17;;;;;;;-4.81;74.20;99337.52;1748846;80;21127;-55
2022/03/14 05:58:40;;;;;;;101.70;42.15;;;;;;;-4.75;72.00;99336.11;1739118;81;20966;-55
2022/03/14 06:01:06;;;;;;;86.53;37.48;;;;;;;-4.68;71.08;99348.58;1744227;82;20994;-55
2022/03/14 06:03:33;;;;;;;260.90;97.40;;;;;;;-4.56;70.76;99351.34;1743941;81;20967;-55
2022/03/14 06:06:01;;;;;;;292.32;112.55;;;;;;;-4.48;72.52;99338.67;1742547;81;20965;-55
2022/03/14 06:08:28;;;;;;;251.73;93.62;;;;;;;-4.33;72.31;99342.95;1755408;80;21442;-55
2022/03/14 06:10:55;;;;;;;395.23;152.55;;;;;;;-4.13;74.23;99339.63;1756994;80;20998;-55
2022/03/14 06:13:22;;;;;;;367.40;148.20;;;;;;;-4.05;73.14;99341.84;1771214;80;21010;-55
2022/03/14 06:15:49;;;;;;;568.87;263.27;;;;;;;-4.00;73.70;99334.28;1744237;82;21399;-55
2022/03/14 06:18:16;;;;;;;393.17;174.62;;;;;;;-3.89;73.43;99333.68;1744069;81;20998;-56
2022/03/14 06:20:43;;;;;;;122.07;56.02;;;;;;;-3.76;72.75;99332.30;1743046;82;21329;-55
2022/03/14 06:23:10;;;;;;;106.97;47.75;;;;;;;-3.62;72.95;99336.66;1733311;80;20994;-55
2022/03/14 06:25:37;;;;;;;111.03;48.75;;;;;;;-3.50;72.31;99340.22;1751206;80;22074;-55
2022/03/14 06:28:04;;;;;;;92.70;41.18;;;;;;;-3.37;71.26;99338.94;1746642;80;21451;-55
2022/03/14 06:30:31;;;;;;;80.20;40.38;;;;;;;-3.26;71.11;99345.28;1743905;80;21426;-55
2022/03/14 06:32:58;;;;;;;86.90;44.85;;;;;;;-3.16;72.35;99336.73;1743847;82;21413;-55
2022/03/14 06:35:25;;;;;;;101.45;49.50;;;;;;;-3.03;72.11;99342.89;1747523;80;20939;-54
2022/03/14 06:37:52;;;;;;;101.18;45.58;;;;;;;-2.90;71.40;99349.91;1744261;81;21065;-55
2022/03/14 06:40:19;;;;;;;91.32;43.42;;;;;;;-2.76;71.69;99339.16;1772034;80;21422;-54
2022/03/14 06:42:49;;;;;;;101.75;47.95;;;;;;;-2.64;71.78;99347.98;1774756;80;21033;-55
2022/03/14 06:45:15;;;;;;;95.20;45.78;;;;;;;-2.48;71.30;99343.67;1751349;80;21629;-56
2022/03/14 06:47:42;;;;;;;93.00;45.17;;;;;;;-2.33;70.40;99342.86;1744215;81;21013;-55
2022/03/14 06:50:10;;;;;;;127.45;60.05;;;;;;;-2.20;71.06;99337.08;1749726;80;20957;-55
2022/03/14 06:52:37;;;;;;;137.68;66.10;;;;;;;-2.01;70.54;99339.89;1737594;82;21009;-55
2022/03/14 06:55:05;;;;;;;200.57;89.65;;;;;;;-1.82;70.11;99331.55;1744594;80;21391;-56
2022/03/14 06:57:33;;;;;;;208.82;76.02;;;;;;;-1.63;69.98;99347.63;1744467;81;21732;-55
2022/03/14 07:00:00;;;;;;;343.65;113.32;;;;;;;-1.42;69.83;99341.78;1746789;80;21396;-56
2022/03/14 07:02:27;;;;;;;231.38;82.30;;;;;;;-1.13;69.17;99347.81;1743297;80;20973;-55
2022/03/14 07:04:54;;;;;;;314.15;110.85;;;;;;;-0.95;68.53;99344.91;1749466;80;21010;-55
2022/03/14 07:07:22;;;;;;;209.43;73.52;;;;;;;-0.69;68.65;99347.27;1744617;80;21434;-55
2022/03/14 07:09:49;;;;;;;202.90;68.67;;;;;;;-0.48;68.06;99348.81;1746194;80;21028;-56
2022/03/14 07:12:15;;;;;;;189.80;66.70;;;;;;;-0.22;66.65;99342.31;1746701;82;20974;-56
2022/03/14 07:14:42;;;;;;;184.65;74.35;;;;;;;0.58;65.47;99335.06;1744675;80;21049;-56
2022/03/14 07:17:09;;;;;;;143.28;56.50;;;;;;;1.80;65.61;99340.97;1748529;80;21369;-56
2022/03/14 07:19:36;;;;;;;80.12;41.48;;;;;;;2.90;62.74;99337.63;1748571;80;21029;-56
2022/03/14 07:22:03;;;;;;;176.95;73.57;;;;;;;3.92;58.22;99339.40;1753752;80;21148;-57
2022/03/14 07:24:31;;;;;;;131.87;63.08;;;;;;;4.89;52.25;99337.91;1754794;80;21050;-56
2022/03/14 07:26:58;;;;;;;133.35;63.02;;;;;;;5.64;50.70;99337.17;1754625;80;21712;-56
2022/03/14 07:29:25;;;;;;;123.40;54.93;;;;;;;6.61;54.68;99328.27;1754279;80;21002;-57
2022/03/14 07:31:52;;;;;;;186.22;98.95;;;;;;;7.56;56.20;99336.70;1753424;80;21171;-56
2022/03/14 07:34:19;;;;;;;194.75;87.67;;;;;;;7.59;46.26;99338.93;1755618;80;21141;-57
2022/03/14 07:36:46;;;;;;;205.62;127.53;;;;;;;8.43;46.05;99328.15;1743055;80;21029;-56
2022/03/14 07:39:13;;;;;;;220.57;125.75;;;;;;;9.21;51.22;99330.42;1749454;80;21415;-57
2022/03/14 07:41:40;;;;;;;121.95;68.28;;;;;;;9.75;48.55;99330.15;1750170;80;21073;-56
2022/03/14 07:44:08;;;;;;;433.57;270.50;;;;;;;10.50;47.35;99329.00;1749276;80;36763;-57
2022/03/14 07:46:35;;;;;;;75.32;45.38;;;;;;;10.66;42.45;99329.52;1754760;80;21667;-56
2022/03/14 07:49:02;;;;;;;163.47;93.78;;;;;;;11.70;43.29;99330.05;1755923;80;21164;-57
2022/03/14 07:51:29;;;;;;;285.77;144.82;;;;;;;12.17;42.41;99332.19;1741861;81;21233;-57
2022/03/14 07:53:56;;;;;;;270.20;166.50;;;;;;;12.57;37.04;99328.98;1748229;80;21079;-57
2022/03/14 07:56:22;;;;;;;222.78;126.80;;;;;;;12.72;36.33;99324.99;1746486;80;21551;-57
2022/03/14 07:58:49;;;;;;;76.37;45.15;;;;;;;13.25;35.11;99317.17;1730021;80;21000;-57
2022/03/14 08:01:19;;;;;;;171.02;121.95;;;;;;;14.03;36.69;99319.03;1757734;80;21115;-57
2022/03/14 08:03:46;;;;;;;69.50;54.45;;;;;;;14.43;35.41;99311.94;1747043;80;21490;-57
2022/03/14 08:06:18;;;;;;;212.50;119.02;;;;;;;14.51;29.79;99312.78;1747965;80;21016;-57
2022/03/14 08:08:42;;;;;;;;;;;;;;;15.24;31.91;99309.90;1756633;80;21011;-57
2022/03/14 08:11:09;;;;;;;54.05;25.55;;;;;;;16.19;30.09;99315.68;1752382;80;21363;-57
2022/03/14 08:13:36;;;;;;;147.68;83.90;;;;;;;16.35;30.14;99320.48;1754520;80;21539;-57
2022/03/14 08:16:04;;;;;;;242.90;146.60;;;;;;;16.56;27.66;99307.44;1754636;80;21013;-57
2022/03/14 08:18:31;;;;;;;155.65;90.75;;;;;;;16.88;27.01;99301.41;1753112;80;21021;-57
2022/03/14 08:20:58;;;;;;;74.58;42.15;;;;;;;17.82;27.90;99303.57;1755734;80;21030;-57
2022/03/14 08:23:25;;;;;;;51.75;26.17;;;;;;;18.24;27.47;99302.09;1748162;80;22223;-57
2022/03/14 08:25:53;;;;;;;28.43;19.50;;;;;;;18.73;26.64;99296.64;1746827;80;21074;-58
2022/03/14 08:28:21;;;;;;;32.17;18.10;;;;;;;19.58;23.73;99304.06;1748977;80;21041;-58
2022/03/14 08:30:48;;;;;;;26.90;17.60;;;;;;;19.20;24.08;99295.19;1752740;80;21638;-58
2022/03/14 08:33:16;;;;;;;41.80;19.10;;;;;;;19.65;23.23;99298.41;1743795;80;21038;-57
2022/03/14 08:35:44;;;;;;;25.27;17.82;;;;;;;19.38;22.84;99290.95;1742892;82;21083;-58
2022/03/14 08:38:13;;;;;;;26.85;16.42;;;;;;;19.73;23.92;99296.27;1755450;80;21037;-58
2022/03/14 08:40:40;;;;;;;28.10;16.25;;;;;;;20.41;23.18;99298.52;1745751;80;21457;-58
2022/03/14 08:43:08;;;;;;;71.70;36.17;;;;;;;21.26;21.83;99287.47;1746100;80;21147;-58
2022/03/14 08:45:35;;;;;;;35.80;20.12;;;;;;;21.61;21.25;99285.08;1748796;80;21054;-58
2022/03/14 08:48:02;;;;;;;34.38;17.20;;;;;;;21.93;21.21;99285.20;1753063;80;21084;-58
2022/03/14 08:50:29;;;;;;;23.65;15.72;;;;;;;22.98;18.96;99278.41;1742262;80;21695;-58
2022/03/14 08:52:56;;;;;;;25.62;18.00;;;;;;;22.65;19.88;99286.47;1745933;80;21640;-58
2022/03/14 08:55:24;;;;;;;29.57;18.25;;;;;;;22.87;19.53;99281.87;1750666;80;21600;-58
2022/03/14 08:57:51;;;;;;;24.65;17.25;;;;;;;23.90;19.31;99286.05;1746748;80;21150;-58
2022/03/14 09:00:19;;;;;;;20.05;15.13;;;;;;;24.86;18.73;99274.88;1741543;80;21687;-58
2022/03/14 09:02:46;;;;;;;19.35;14.35;;;;;;;25.59;17.82;99273.54;1752039;80;21069;-58
2022/03/14 09:05:13;;;;;;;18.77;13.22;;;;;;;26.03;17.24;99273.12;1742942;80;21057;-58
2022/03/14 09:07:39;;;;;;;19.90;13.32;;;;;;;26.18;16.46;99270.17;1751166;80;21111;-57
2022/03/14 09:10:09;;;;;;;44.58;15.90;;;;;;;23.91;17.59;99277.40;1753646;80;21078;-58
2022/03/14 09:12:37;;;;;;;20.20;13.32;;;;;;;21.52;18.77;99271.03;1758717;80;21072;-57
2022/03/14 09:15:06;;;;;;;;;;;;;;;19.95;19.76;99278.19;1754396;80;21060;-58
2022/03/14 09:17:33;;;;;;;21.42;13.22;;;;;;;18.43;19.62;99280.10;1755931;80;20413;-57
2022/03/14 09:20:03;;;;;;;20.32;13.62;;;;;;;16.99;20.59;99275.55;1724421;80;21100;-57
2022/03/14 09:22:30;;;;;;;20.43;13.78;;;;;;;15.81;21.24;99283.16;1752966;80;22223;-56
2022/03/14 09:24:57;;;;;;;22.05;13.45;;;;;;;14.63;21.93;99287.42;1753542;80;21432;-56
2022/03/14 09:27:25;;;;;;;18.87;11.65;;;;;;;13.91;22.62;99279.76;1752736;80;21135;-57
2022/03/14 09:29:52;;;;;;;25.55;13.60;;;;;;;13.41;23.43;99279.91;1754876;80;21139;-57
2022/03/14 09:32:20;;;;;;;21.45;11.10;;;;;;;12.54;23.75;99273.75;1754679;80;21148;-56
2022/03/14 09:34:46;;;;;;;17.70;11.53;;;;;;;12.25;24.17;99277.36;1754887;80;21136;-57
2022/03/14 09:37:13;;;;;;;22.25;11.53;;;;;;;12.06;24.42;99276.94;1752517;80;21014;-57
2022/03/14 09:39:40;;;;;;;22.15;10.58;;;;;;;11.93;24.85;99280.07;1757959;80;21528;-57
2022/03/14 09:42:09;;;;;;;15.95;9.03;;;;;;;11.52;24.80;99283.70;1753099;80;21049;-56
2022/03/14 09:44:36;;;;;;;;;;;;;;;11.52;25.41;99287.23;1743741;80;21061;-57
2022/03/14 09:47:03;;;;;;;12.75;6.45;;;;;;;11.26;25.00;99288.84;1744321;80;20620;-57
2022/03/14 09:49:31;;;;;;;32.45;9.80;;;;;;;11.12;25.78;99290.31;1741248;81;21002;-57
2022/03/14 09:51:59;;;;;;;11.63;6.40;;;;;;;11.06;26.00;99294.02;1720621;82;21099;-56
2022/03/14 09:54:26;;;;;;;15.35;9.50;;;;;;;10.94;25.86;99290.09;1738476;80;20994;-57
2022/03/14 09:56:57;;;;;;;14.50;7.40;;;;;;;11.01;26.31;99292.05;1750983;80;21533;-57
2022/03/14 09:59:22;;;;;;;28.15;8.13;;;;;;;11.05;26.71;99292.92;1750994;80;21080;-56
2022/03/14 10:01:48;;;;;;;13.53;6.67;;;;;;;10.93;26.23;99293.02;1724975;80;21591;-57
2022/03/14 10:04:15;;;;;;;10.93;6.28;;;;;;;10.95;26.22;99286.30;1748154;80;21143;-56
2022/03/14 10:06:44;;;;;;;11.08;6.75;;;;;;;11.01;26.44;99286.63;1746037;80;21037;-57
2022/03/14 10:09:11;;;;;;;14.30;6.25;;;;;;;11.01;26.56;99286.63;1741538;80;21034;-56
2022/03/14 10:11:38;;;;;;;16.55;7.45;;;;;;;11.04;26.71;99289.94;1684303;84;21475;-57
2022/03/14 10:14:05;;;;;;;9.93;5.65;;;;;;;10.95;26.54;99281.41;1720537;82;21097;-56
2022/03/14 10:16:32;;;;;;;22.67;8.28;;;;;;;11.01;26.75;99288.52;1727934;82;21010;-57
2022/03/14 10:19:07;;;;;;;70.15;13.72;;;;;;;11.01;26.80;99287.17;1693604;83;21222;-56
2022/03/14 10:21:39;;;;;;;10.80;5.55;;;;;;;10.93;26.34;99278.92;1706552;82;21752;-56
2022/03/14 10:24:09;;;;;;;14.63;6.87;;;;;;;10.96;26.67;99283.05;1744735;80;21007;-57
2022/03/14 10:26:39;;;;;;;27.73;9.28;;;;;;;10.97;26.38;99280.62;1749642;80;21317;-56
2022/03/14 10:29:13;;;;;;;26.20;9.65;;;;;;;11.05;26.36;99280.72;1749695;80;21453;-56
2022/03/14 10:31:45;;;;;;;12.88;7.70;;;;;;;11.06;26.72;99280.46;1742684;80;21044;-56
2022/03/14 10:34:14;;;;;;;9.45;5.22;;;;;;;11.04;25.99;99281.80;1742377;80;21084;-56
2022/03/14 10:36:57;;;;;;;18.70;13.10;;;;;;;11.07;25.64;99282.64;1747915;80;21026;-57
2022/03/14 10:39:28;;;;;;;20.60;10.95;;;;;;;11.13;25.83;99283.81;1742616;80;21676;-56
2022/03/14 10:42:10;;;;;;;9.68;5.05;;;;;;;11.14;26.75;99277.84;1752172;80;21472;-57
2022/03/14 10:44:40;;;;;;;11.63;5.75;;;;;;;11.12;26.63;99282.71;1765781;80;21135;-56
2022/03/14 10:47:09;;;;;;;7.28;4.53;;;;;;;11.10;26.13;99280.77;1740986;80;21013;-56
2022/03/14 10:49:39;;;;;;;12.95;6.10;;;;;;;11.17;26.28;99275.44;1749912;80;21536;-57
2022/03/14 10:52:07;;;;;;;6.70;4.05;;;;;;;11.23;26.39;99268.19;1752957;80;21076;-57
2022/03/14 10:54:35;;;;;;;6.80;3.50;;;;;;;11.27;26.76;99265.23;1746188;80;21120;-56
2022/03/14 10:57:11;;;;;;;8.73;5.90;;;;;;;11.36;26.31;99268.32;1761280;80;21104;-57
2022/03/14 10:59:41;;;;;;;8.08;4.72;;;;;;;11.44;26.14;99271.94;1748451;80;21088;-57
2022/03/14 11:02:14;;;;;;;11.60;4.65;;;;;;;11.49;26.89;99259.80;1742069;80;22986;-57
2022/03/14 11:04:43;;;;;;;6.55;3.95;;;;;;;11.52;26.65;99264.70;1752543;80;21376;-57
2022/03/14 11:07:10;;;;;;;7.50;4.15;;;;;;;11.53;26.62;99267.16;1744452;81;21112;-57
2022/03/14 11:09:49;;;;;;;11.28;5.72;;;;;;;11.55;26.90;99263.67;1748297;80;21458;-56
2022/03/14 11:12:17;;;;;;;;;;;;;;;11.61;26.51;99259.63;1754884;80;21518;-57
2022/03/14 11:14:54;;;;;;;7.08;3.30;;;;;;;11.72;26.37;99248.63;1742095;80;20190;-56
2022/03/14 11:17:26;;;;;;;8.78;3.77;;;;;;;11.79;26.95;99248.40;1746548;80;21207;-56
2022/03/14 11:19:53;;;;;;;9.98;5.10;;;;;;;11.87;26.77;99250.67;1751064;80;21064;-56